createdAt,value
2019-01-12T00:00:22.443Z,1018.30
2019-01-12T00:01:22.449Z,1018.23
2019-01-12T00:02:22.419Z,1018.26
2019-01-12T00:03:22.410Z,1018.27
2019-01-12T00:04:22.397Z,1018.22
2019-01-12T00:05:22.386Z,1018.25
2019-01-12T00:06:22.373Z,1018.26
2019-01-12T00:07:22.384Z,1018.24
2019-01-12T00:08:22.355Z,1018.29
2019-01-12T00:09:22.348Z,1018.21
2019-01-12T00:10:22.327Z,1018.26
2019-01-12T00:11:22.339Z,1018.24
2019-01-12T00:12:22.309Z,1018.20
2019-01-12T00:13:22.302Z,1018.18
2019-01-12T00:14:22.287Z,1018.30
2019-01-12T00:15:22.291Z,1018.26
2019-01-12T00:16:22.319Z,1018.27
2019-01-12T00:17:22.255Z,1018.22
2019-01-12T00:18:22.246Z,1018.26
2019-01-12T00:19:22.236Z,1018.21
2019-01-12T00:20:22.229Z,1018.26
2019-01-12T00:21:22.215Z,1018.25
2019-01-12T00:22:22.221Z,1018.23
2019-01-12T00:23:22.193Z,1018.26
2019-01-12T00:24:22.179Z,1018.22
2019-01-12T00:25:22.171Z,1018.24
2019-01-12T00:26:22.174Z,1018.21
2019-01-12T00:27:22.168Z,1018.19
2019-01-12T00:28:22.143Z,1018.15
2019-01-12T00:29:22.121Z,1018.20
2019-01-12T00:30:22.123Z,1018.20
2019-01-12T00:31:22.110Z,1018.10
2019-01-12T00:32:22.116Z,1018.12
2019-01-12T00:33:22.085Z,1018.14
2019-01-12T00:34:22.069Z,1018.17
2019-01-12T00:35:22.108Z,1018.13
2019-01-12T00:36:22.056Z,1018.10
2019-01-12T00:37:22.056Z,1018.10
2019-01-12T00:38:22.035Z,1018.05
2019-01-12T00:39:22.019Z,1018.10
2019-01-12T00:40:22.005Z,1018.12
2019-01-12T00:41:22.001Z,1018.13
2019-01-12T00:42:21.999Z,1018.14
2019-01-12T00:43:21.976Z,1018.11
2019-01-12T00:44:21.964Z,1018.08
2019-01-12T00:45:21.959Z,1018.13
2019-01-12T00:46:21.948Z,1018.09
2019-01-12T00:47:21.952Z,1018.05
2019-01-12T00:48:21.926Z,1018.10
2019-01-12T00:49:21.922Z,1018.20
2019-01-12T00:50:21.909Z,1018.10
2019-01-12T00:51:21.899Z,1018.11
2019-01-12T00:52:21.907Z,1018.06
2019-01-12T00:53:21.871Z,1018.10
2019-01-12T00:54:21.859Z,1018.08
2019-01-12T00:55:21.845Z,1018.11
2019-01-12T00:56:21.833Z,1018.10
2019-01-12T00:57:21.846Z,1018.05
2019-01-12T00:58:21.812Z,1018.06
2019-01-12T00:59:21.804Z,1018.08
2019-01-12T01:00:21.800Z,1018.09
2019-01-12T01:01:21.785Z,1018.07
2019-01-12T01:02:21.785Z,1018.06
2019-01-12T01:03:21.757Z,1018.05
2019-01-12T01:04:21.746Z,1018.08
2019-01-12T01:05:21.736Z,1018.00
2019-01-12T01:06:21.752Z,1018.12
2019-01-12T01:07:21.740Z,1018.04
2019-01-12T01:08:21.706Z,1018.02
2019-01-12T01:09:21.711Z,1018.05
2019-01-12T01:10:21.681Z,1018.09
2019-01-12T01:11:21.673Z,1018.08
2019-01-12T01:12:21.678Z,1018.06
2019-01-12T01:13:21.655Z,1018.07
2019-01-12T01:14:21.676Z,1018.05
2019-01-12T01:15:21.633Z,1018.09
2019-01-12T01:16:21.628Z,1018.08
2019-01-12T01:17:21.629Z,1018.10
2019-01-12T01:18:21.607Z,1018.06
2019-01-12T01:19:21.585Z,1018.06
2019-01-12T01:20:21.604Z,1018.08
2019-01-12T01:21:21.566Z,1018.09
2019-01-12T01:22:21.559Z,1018.09
2019-01-12T01:23:21.567Z,1018.09
2019-01-12T01:24:21.533Z,1017.96
2019-01-12T01:25:21.521Z,1018.13
2019-01-12T01:26:21.533Z,1018.11
2019-01-12T01:27:21.524Z,1018.08
2019-01-12T01:28:21.508Z,1018.10
2019-01-12T01:29:21.478Z,1018.17
2019-01-12T01:30:21.469Z,1018.14
2019-01-12T01:31:21.456Z,1018.06
2019-01-12T01:32:21.445Z,1018.09
2019-01-12T01:33:27.952Z,1018.12
2019-01-12T01:34:22.453Z,1018.17
2019-01-12T01:35:21.415Z,1018.08
2019-01-12T01:36:21.402Z,1018.12
2019-01-12T01:37:21.389Z,1018.18
2019-01-12T01:38:21.379Z,1018.14
2019-01-12T01:39:21.395Z,1018.14
2019-01-12T01:40:21.356Z,1018.13
2019-01-12T01:41:21.349Z,1018.09
2019-01-12T01:42:21.336Z,1018.14
2019-01-12T01:43:21.326Z,1018.10
2019-01-12T01:44:21.351Z,1018.15
2019-01-12T01:45:21.304Z,1018.16
2019-01-12T01:46:21.292Z,1018.11
2019-01-12T01:47:21.279Z,1018.14
2019-01-12T01:48:21.281Z,1018.12
2019-01-12T01:49:21.281Z,1018.12
2019-01-12T01:50:21.260Z,1018.15
2019-01-12T01:51:21.237Z,1018.12
2019-01-12T01:52:21.231Z,1018.18
2019-01-12T01:53:21.217Z,1018.15
2019-01-12T01:54:21.224Z,1018.11
2019-01-12T01:55:21.194Z,1018.16
2019-01-12T01:56:21.191Z,1018.15
2019-01-12T01:57:21.174Z,1018.16
2019-01-12T01:58:21.162Z,1018.12
2019-01-12T01:59:21.174Z,1018.12
2019-01-12T02:00:21.140Z,1018.16
2019-01-12T02:01:21.130Z,1018.08
2019-01-12T02:02:21.126Z,1018.13
2019-01-12T02:03:21.111Z,1018.08
2019-01-12T02:04:21.097Z,1018.12
2019-01-12T02:05:21.103Z,1018.15
2019-01-12T02:06:21.074Z,1018.19
2019-01-12T02:07:21.066Z,1018.13
2019-01-12T02:08:21.062Z,1018.11
2019-01-12T02:09:21.044Z,1018.11
2019-01-12T02:10:21.050Z,1018.11
2019-01-12T02:11:21.028Z,1018.12
2019-01-12T02:12:21.011Z,1018.07
2019-01-12T02:13:21.000Z,1018.03
2019-01-12T02:14:21.007Z,1018.09
2019-01-12T02:15:20.995Z,1018.06
2019-01-12T02:16:20.969Z,1018.06
2019-01-12T02:17:20.961Z,1018.09
2019-01-12T02:18:20.948Z,1018.08
2019-01-12T02:19:20.948Z,1018.07
2019-01-12T02:20:20.945Z,1018.05
2019-01-12T02:21:20.931Z,1018.01
2019-01-12T02:22:20.907Z,1018.04
2019-01-12T02:23:20.894Z,1018.03
2019-01-12T02:24:20.884Z,1018.02
2019-01-12T02:25:20.888Z,1018.07
2019-01-12T02:26:20.861Z,1018.02
2019-01-12T02:27:20.857Z,1018.08
2019-01-12T02:28:20.841Z,1018.04
2019-01-12T02:29:20.828Z,1018.05
2019-01-12T02:30:20.845Z,1018.08
2019-01-12T02:31:20.812Z,1018.02
2019-01-12T02:32:20.796Z,1018.06
2019-01-12T02:33:20.797Z,1018.03
2019-01-12T02:34:20.775Z,1018.04
2019-01-12T02:35:20.785Z,1017.97
2019-01-12T02:36:20.754Z,1017.98
2019-01-12T02:37:20.740Z,1018.02
2019-01-12T02:38:20.732Z,1018.00
2019-01-12T02:39:20.730Z,1017.94
2019-01-12T02:40:20.736Z,1017.95
2019-01-12T02:41:20.700Z,1017.96
2019-01-12T02:42:20.694Z,1017.94
2019-01-12T02:43:20.678Z,1017.93
2019-01-12T02:44:20.668Z,1017.96
2019-01-12T02:45:20.691Z,1017.89
2019-01-12T02:46:20.646Z,1017.91
2019-01-12T02:47:20.738Z,1017.88
2019-01-12T02:48:20.625Z,1017.87
2019-01-12T02:49:20.612Z,1017.91
2019-01-12T02:50:20.620Z,1017.88
2019-01-12T02:51:20.605Z,1017.85
2019-01-12T02:52:20.581Z,1017.90
2019-01-12T02:53:20.578Z,1017.86
2019-01-12T02:54:20.558Z,1017.83
2019-01-12T02:55:20.567Z,1017.81
2019-01-12T02:56:20.539Z,1017.79
2019-01-12T02:57:20.536Z,1017.78
2019-01-12T02:58:20.518Z,1017.80
2019-01-12T02:59:20.506Z,1017.80
2019-01-12T03:00:20.514Z,1017.78
2019-01-12T03:01:20.489Z,1017.76
2019-01-12T03:02:20.472Z,1017.70
2019-01-12T03:03:20.476Z,1017.68
2019-01-12T03:04:20.452Z,1017.72
2019-01-12T03:05:20.461Z,1017.74
2019-01-12T03:06:20.428Z,1017.67
2019-01-12T03:07:20.420Z,1017.74
2019-01-12T03:08:20.410Z,1017.72
2019-01-12T03:09:20.418Z,1017.70
2019-01-12T03:10:20.405Z,1017.69
2019-01-12T03:11:20.376Z,1017.77
2019-01-12T03:12:20.365Z,1017.69
2019-01-12T03:13:20.355Z,1017.71
2019-01-12T03:14:20.344Z,1017.64
2019-01-12T03:15:20.391Z,1017.63
2019-01-12T03:16:20.332Z,1017.61
2019-01-12T03:17:20.314Z,1017.68
2019-01-12T03:18:20.301Z,1017.60
2019-01-12T03:19:20.291Z,1017.64
2019-01-12T03:20:20.302Z,1017.65
2019-01-12T03:21:20.275Z,1017.66
2019-01-12T03:22:20.259Z,1017.65
2019-01-12T03:23:20.250Z,1017.62
2019-01-12T03:24:20.236Z,1017.63
2019-01-12T03:25:20.246Z,1017.66
2019-01-12T03:26:20.223Z,1017.62
2019-01-12T03:27:20.215Z,1017.59
2019-01-12T03:28:20.196Z,1017.55
2019-01-12T03:29:20.189Z,1017.58
2019-01-12T03:30:20.208Z,1017.55
2019-01-12T03:31:20.178Z,1017.53
2019-01-12T03:32:20.158Z,1017.51
2019-01-12T03:33:20.165Z,1017.52
2019-01-12T03:34:20.130Z,1017.49
2019-01-12T03:35:20.140Z,1017.45
2019-01-12T03:36:20.110Z,1017.44
2019-01-12T03:37:20.097Z,1017.41
2019-01-12T03:38:20.086Z,1017.38
2019-01-12T03:39:20.082Z,1017.44
2019-01-12T03:40:20.071Z,1017.42
2019-01-12T03:41:20.081Z,1017.41
2019-01-12T03:42:20.050Z,1017.34
2019-01-12T03:43:20.040Z,1017.32
2019-01-12T03:44:20.027Z,1017.28
2019-01-12T03:45:20.015Z,1017.35
2019-01-12T03:46:20.026Z,1017.46
2019-01-12T03:47:19.991Z,1017.39
2019-01-12T03:48:19.982Z,1017.30
2019-01-12T03:49:19.974Z,1017.35
2019-01-12T03:50:19.958Z,1017.38
2019-01-12T03:51:19.968Z,1017.33
2019-01-12T03:52:19.939Z,1017.34
2019-01-12T03:53:19.927Z,1017.31
2019-01-12T03:54:19.916Z,1017.31
2019-01-12T03:55:25.418Z,1017.31
2019-01-12T03:56:20.917Z,1017.32
2019-01-12T03:57:19.885Z,1017.28
2019-01-12T03:58:19.879Z,1017.32
2019-01-12T03:59:19.865Z,1017.34
2019-01-12T04:00:19.853Z,1017.34
2019-01-12T04:01:19.858Z,1017.31
2019-01-12T04:02:19.846Z,1017.31
2019-01-12T04:03:19.823Z,1017.29
2019-01-12T04:04:19.809Z,1017.32
2019-01-12T04:05:19.811Z,1017.31
2019-01-12T04:06:19.803Z,1017.32
2019-01-12T04:07:19.775Z,1017.27
2019-01-12T04:08:19.767Z,1017.31
2019-01-12T04:09:19.754Z,1017.25
2019-01-12T04:10:19.744Z,1017.25
2019-01-12T04:11:19.772Z,1017.31
2019-01-12T04:12:19.739Z,1017.32
2019-01-12T04:13:19.711Z,1017.29
2019-01-12T04:14:19.701Z,1017.28
2019-01-12T04:15:19.691Z,1017.28
2019-01-12T04:16:19.679Z,1017.31
2019-01-12T04:17:19.689Z,1017.26
2019-01-12T04:18:19.668Z,1017.28
2019-01-12T04:19:19.649Z,1017.32
2019-01-12T04:20:19.637Z,1017.24
2019-01-12T04:21:19.634Z,1017.26
2019-01-12T04:22:19.639Z,1017.27
2019-01-12T04:23:19.609Z,1017.23
2019-01-12T04:24:19.615Z,1017.18
2019-01-12T04:25:19.582Z,1017.19
2019-01-12T04:26:19.574Z,1017.20
2019-01-12T04:27:19.565Z,1017.16
2019-01-12T04:28:19.568Z,1017.15
2019-01-12T04:29:19.543Z,1017.12
2019-01-12T04:30:19.543Z,1017.17
2019-01-12T04:31:19.519Z,1017.15
2019-01-12T04:32:19.509Z,1017.18
2019-01-12T04:33:19.521Z,1017.12
2019-01-12T04:34:19.489Z,1017.10
2019-01-12T04:35:19.480Z,1017.16
2019-01-12T04:36:19.469Z,1017.15
2019-01-12T04:37:19.458Z,1017.16
2019-01-12T04:38:19.461Z,1017.14
2019-01-12T04:39:19.434Z,1017.14
2019-01-12T04:40:19.424Z,1017.12
2019-01-12T04:41:19.412Z,1017.16
2019-01-12T04:42:19.400Z,1017.13
2019-01-12T04:43:19.416Z,1017.13
2019-01-12T04:44:19.388Z,1017.16
2019-01-12T04:45:19.369Z,1017.10
2019-01-12T04:46:19.361Z,1017.13
2019-01-12T04:47:19.349Z,1017.09
2019-01-12T04:48:19.784Z,1017.12
2019-01-12T04:49:19.329Z,1017.15
2019-01-12T04:50:19.316Z,1017.14
2019-01-12T04:51:19.307Z,1017.14
2019-01-12T04:52:19.295Z,1017.05
2019-01-12T04:53:19.327Z,1017.03
2019-01-12T04:54:19.273Z,1017.12
2019-01-12T04:55:19.265Z,1017.07
2019-01-12T04:56:19.259Z,1017.09
2019-01-12T04:57:19.240Z,1017.08
2019-01-12T04:58:19.232Z,1017.09
2019-01-12T04:59:19.236Z,1017.03
2019-01-12T05:00:19.206Z,1017.08
2019-01-12T05:01:19.197Z,1017.06
2019-01-12T05:02:19.187Z,1017.07
2019-01-12T05:03:19.183Z,1017.09
2019-01-12T05:04:19.196Z,1017.05
2019-01-12T05:05:19.159Z,1017.09
2019-01-12T05:06:19.145Z,1017.05
2019-01-12T05:07:19.133Z,1017.07
2019-01-12T05:08:19.124Z,1017.03
2019-01-12T05:09:19.114Z,1017.05
2019-01-12T05:10:19.131Z,1017.05
2019-01-12T05:11:19.098Z,1017.12
2019-01-12T05:12:19.078Z,1017.15
2019-01-12T05:13:19.069Z,1017.14
2019-01-12T05:14:19.062Z,1017.11
2019-01-12T05:15:19.066Z,1017.14
2019-01-12T05:16:19.038Z,1017.15
2019-01-12T05:17:19.025Z,1017.14
2019-01-12T05:18:19.018Z,1017.14
2019-01-12T05:19:19.004Z,1017.18
2019-01-12T05:20:19.015Z,1017.09
2019-01-12T05:21:18.982Z,1017.09
2019-01-12T05:22:18.971Z,1017.11
2019-01-12T05:23:18.967Z,1017.08
2019-01-12T05:24:18.949Z,1017.08
2019-01-12T05:25:18.938Z,1017.05
2019-01-12T05:26:18.944Z,1017.09
2019-01-12T05:27:18.917Z,1017.09
2019-01-12T05:28:18.906Z,1017.05
2019-01-12T05:29:18.898Z,1017.06
2019-01-12T05:30:18.893Z,1017.09
2019-01-12T05:31:18.896Z,1017.11
2019-01-12T05:32:18.861Z,1017.06
2019-01-12T05:33:18.851Z,1017.11
2019-01-12T05:34:18.844Z,1017.12
2019-01-12T05:35:18.829Z,1017.12
2019-01-12T05:36:18.838Z,1017.10
2019-01-12T05:37:18.813Z,1017.10
2019-01-12T05:38:18.816Z,1017.13
2019-01-12T05:39:18.786Z,1017.19
2019-01-12T05:40:18.782Z,1017.16
2019-01-12T05:41:18.784Z,1017.18
2019-01-12T05:42:18.756Z,1017.23
2019-01-12T05:43:18.745Z,1017.21
2019-01-12T05:44:18.737Z,1017.24
2019-01-12T05:45:18.726Z,1017.21
2019-01-12T05:46:18.737Z,1017.24
2019-01-12T05:47:18.701Z,1017.20
2019-01-12T05:48:18.691Z,1017.20
2019-01-12T05:49:18.721Z,1017.22
2019-01-12T05:50:18.678Z,1017.19
2019-01-12T05:51:18.660Z,1017.17
2019-01-12T05:52:18.654Z,1017.21
2019-01-12T05:53:18.639Z,1017.17
2019-01-12T05:54:18.630Z,1017.19
2019-01-12T05:55:18.636Z,1017.19
2019-01-12T05:56:18.606Z,1017.21
2019-01-12T05:57:18.596Z,1017.20
2019-01-12T05:58:18.590Z,1017.18
2019-01-12T05:59:18.600Z,1017.21
2019-01-12T06:00:18.606Z,1017.19
2019-01-12T06:01:18.557Z,1017.18
2019-01-12T06:02:18.541Z,1017.11
2019-01-12T06:03:18.529Z,1017.11
2019-01-12T06:04:18.533Z,1017.18
2019-01-12T06:05:18.510Z,1017.13
2019-01-12T06:06:18.521Z,1017.12
2019-01-12T06:07:18.490Z,1017.17
2019-01-12T06:08:18.476Z,1017.17
2019-01-12T06:09:18.466Z,1017.17
2019-01-12T06:10:18.467Z,1017.18
2019-01-12T06:11:18.463Z,1017.15
2019-01-12T06:12:18.435Z,1017.16
2019-01-12T06:13:18.424Z,1017.18
2019-01-12T06:14:18.412Z,1017.14
2019-01-12T06:15:18.401Z,1017.19
2019-01-12T06:16:18.414Z,1017.20
2019-01-12T06:17:18.382Z,1017.16
2019-01-12T06:18:18.371Z,1017.15
2019-01-12T06:19:18.402Z,1017.15
2019-01-12T06:20:18.348Z,1017.11
2019-01-12T06:21:18.355Z,1017.15
2019-01-12T06:22:18.349Z,1017.17
2019-01-12T06:23:18.318Z,1017.11
2019-01-12T06:24:18.305Z,1017.14
2019-01-12T06:25:18.293Z,1017.14
2019-01-12T06:26:18.303Z,1017.14
2019-01-12T06:27:18.271Z,1017.11
2019-01-12T06:28:18.265Z,1017.10
2019-01-12T06:29:18.259Z,1017.07
2019-01-12T06:30:18.245Z,1017.09
2019-01-12T06:31:18.228Z,1017.10
2019-01-12T06:32:18.240Z,1017.03
2019-01-12T06:33:18.212Z,1017.04
2019-01-12T06:34:18.210Z,1017.02
2019-01-12T06:35:18.195Z,1017.03
2019-01-12T06:36:18.176Z,1017.00
2019-01-12T06:37:18.184Z,1017.00
2019-01-12T06:38:18.156Z,1016.93
2019-01-12T06:39:18.146Z,1016.92
2019-01-12T06:40:18.135Z,1016.96
2019-01-12T06:41:18.126Z,1016.95
2019-01-12T06:42:18.130Z,1016.98
2019-01-12T06:43:18.102Z,1016.95
2019-01-12T06:44:18.092Z,1016.90
2019-01-12T06:45:18.079Z,1016.89
2019-01-12T06:46:18.071Z,1016.92
2019-01-12T06:47:18.077Z,1016.87
2019-01-12T06:48:18.052Z,1016.82
2019-01-12T06:49:18.039Z,1016.82
2019-01-12T06:50:18.033Z,1016.81
2019-01-12T06:51:18.018Z,1016.78
2019-01-12T06:52:18.032Z,1016.79
2019-01-12T06:53:18.015Z,1016.82
2019-01-12T06:54:17.992Z,1016.79
2019-01-12T06:55:17.974Z,1016.83
2019-01-12T06:56:17.963Z,1016.83
2019-01-12T06:57:17.951Z,1016.84
2019-01-12T06:58:17.963Z,1016.80
2019-01-12T06:59:17.937Z,1016.79
2019-01-12T07:00:17.927Z,1016.76
2019-01-12T07:01:17.914Z,1016.68
2019-01-12T07:02:17.901Z,1016.63
2019-01-12T07:03:17.917Z,1016.63
2019-01-12T07:04:17.877Z,1016.57
2019-01-12T07:05:17.874Z,1016.57
2019-01-12T07:06:17.910Z,1016.51
2019-01-12T07:07:17.844Z,1016.47
2019-01-12T07:08:17.879Z,1016.45
2019-01-12T07:09:17.849Z,1016.49
2019-01-12T07:10:17.817Z,1016.50
2019-01-12T07:11:17.805Z,1016.49
2019-01-12T07:12:17.794Z,1016.48
2019-01-12T07:13:17.808Z,1016.40
2019-01-12T07:14:17.809Z,1016.45
2019-01-12T07:15:17.773Z,1016.44
2019-01-12T07:16:17.750Z,1016.38
2019-01-12T07:17:17.755Z,1016.45
2019-01-12T07:18:17.776Z,1016.43
2019-01-12T07:19:17.734Z,1016.42
2019-01-12T07:20:17.706Z,1016.46
2019-01-12T07:21:17.754Z,1016.41
2019-01-12T07:22:17.684Z,1016.42
2019-01-12T07:23:17.677Z,1016.43
2019-01-12T07:24:17.684Z,1016.43
2019-01-12T07:25:17.657Z,1016.51
2019-01-12T07:26:17.838Z,1016.42
2019-01-12T07:27:17.669Z,1016.47
2019-01-12T07:28:17.629Z,1016.37
2019-01-12T07:29:17.639Z,1016.43
2019-01-12T07:30:17.599Z,1016.44
2019-01-12T07:31:17.589Z,1016.43
2019-01-12T07:32:17.584Z,1016.49
2019-01-12T07:33:17.575Z,1016.50
2019-01-12T07:34:17.563Z,1016.56
2019-01-12T07:35:17.567Z,1016.49
2019-01-12T07:36:17.554Z,1016.51
2019-01-12T07:37:17.528Z,1016.53
2019-01-12T07:38:17.547Z,1016.48
2019-01-12T07:39:17.504Z,1016.50
2019-01-12T07:40:17.494Z,1016.52
2019-01-12T07:41:17.584Z,1016.51
2019-01-12T07:42:17.471Z,1016.52
2019-01-12T07:43:17.466Z,1016.46
2019-01-12T07:44:17.453Z,1016.54
2019-01-12T07:45:17.443Z,1016.53
2019-01-12T07:46:17.461Z,1016.45
2019-01-12T07:47:17.420Z,1016.43
2019-01-12T07:48:17.404Z,1016.39
2019-01-12T07:49:17.394Z,1016.41
2019-01-12T07:50:17.389Z,1016.38
2019-01-12T07:51:17.397Z,1016.36
2019-01-12T07:52:17.404Z,1016.36
2019-01-12T07:53:17.355Z,1016.36
2019-01-12T07:54:17.373Z,1016.36
2019-01-12T07:55:17.329Z,1016.32
2019-01-12T07:56:17.344Z,1016.38
2019-01-12T07:57:17.318Z,1016.37
2019-01-12T07:58:17.306Z,1016.35
2019-01-12T07:59:17.287Z,1016.34
2019-01-12T08:00:17.281Z,1016.26
2019-01-12T08:01:17.290Z,1016.28
2019-01-12T08:02:17.270Z,1016.21
2019-01-12T08:03:17.247Z,1016.30
2019-01-12T08:04:17.236Z,1016.23
2019-01-12T08:05:17.227Z,1016.24
2019-01-12T08:06:17.240Z,1016.22
2019-01-12T08:07:17.199Z,1016.20
2019-01-12T08:08:17.201Z,1016.17
2019-01-12T08:09:17.186Z,1016.12
2019-01-12T08:10:17.184Z,1016.08
2019-01-12T08:11:17.182Z,1016.08
2019-01-12T08:12:17.174Z,1016.05
2019-01-12T08:13:17.138Z,1016.12
2019-01-12T08:14:17.164Z,1016.05
2019-01-12T08:15:17.120Z,1015.99
2019-01-12T08:16:17.104Z,1015.98
2019-01-12T08:17:17.117Z,1015.98
2019-01-12T08:18:17.086Z,1015.97
2019-01-12T08:19:17.091Z,1015.93
2019-01-12T08:20:17.069Z,1015.98
2019-01-12T08:21:17.097Z,1015.96
2019-01-12T08:22:17.047Z,1015.89
2019-01-12T08:23:17.059Z,1015.92
2019-01-12T08:24:17.023Z,1015.92
2019-01-12T08:25:17.013Z,1015.94
2019-01-12T08:26:17.016Z,1015.87
2019-01-12T08:27:16.993Z,1015.88
2019-01-12T08:28:16.998Z,1015.73
2019-01-12T08:29:16.967Z,1015.79
2019-01-12T08:30:16.971Z,1015.68
2019-01-12T08:31:16.963Z,1015.66
2019-01-12T08:32:16.936Z,1015.60
2019-01-12T08:33:16.945Z,1015.59
2019-01-12T08:34:16.924Z,1015.69
2019-01-12T08:35:16.912Z,1015.63
2019-01-12T08:36:16.892Z,1015.57
2019-01-12T08:37:16.889Z,1015.62
2019-01-12T08:38:16.894Z,1015.59
2019-01-12T08:39:16.867Z,1015.62
2019-01-12T08:40:16.850Z,1015.57
2019-01-12T08:41:16.838Z,1015.61
2019-01-12T08:42:16.829Z,1015.53
2019-01-12T08:43:16.881Z,1015.50
2019-01-12T08:44:16.804Z,1015.46
2019-01-12T08:45:16.801Z,1015.48
2019-01-12T08:46:16.789Z,1015.43
2019-01-12T08:47:16.782Z,1015.34
2019-01-12T08:48:16.771Z,1015.37
2019-01-12T08:49:16.779Z,1015.29
2019-01-12T08:50:16.750Z,1015.23
2019-01-12T08:51:16.736Z,1015.21
2019-01-12T08:52:16.721Z,1015.22
2019-01-12T08:53:16.733Z,1015.27
2019-01-12T08:54:16.704Z,1015.24
2019-01-12T08:55:16.689Z,1015.24
2019-01-12T08:56:16.682Z,1015.28
2019-01-12T08:57:16.668Z,1015.34
2019-01-12T08:58:16.681Z,1015.32
2019-01-12T08:59:16.646Z,1015.36
2019-01-12T09:00:16.633Z,1015.33
2019-01-12T09:01:16.631Z,1015.39
2019-01-12T09:02:16.627Z,1015.43
2019-01-12T09:03:16.629Z,1015.42
2019-01-12T09:04:16.595Z,1015.49
2019-01-12T09:05:16.591Z,1015.49
2019-01-12T09:06:16.571Z,1015.58
2019-01-12T09:07:16.560Z,1015.60
2019-01-12T09:08:16.546Z,1015.66
2019-01-12T09:09:16.553Z,1015.63
2019-01-12T09:10:16.527Z,1015.64
2019-01-12T09:11:16.521Z,1015.57
2019-01-12T09:12:16.520Z,1015.52
2019-01-12T09:13:16.492Z,1015.42
2019-01-12T09:14:16.513Z,1015.32
2019-01-12T09:15:16.473Z,1015.25
2019-01-12T09:16:16.463Z,1015.31
2019-01-12T09:17:16.447Z,1015.28
2019-01-12T09:18:16.451Z,1015.16
2019-01-12T09:19:16.472Z,1015.25
2019-01-12T09:20:16.436Z,1015.19
2019-01-12T09:21:16.407Z,1015.18
2019-01-12T09:22:16.444Z,1015.19
2019-01-12T09:23:16.433Z,1015.18
2019-01-12T09:24:16.399Z,1015.07
2019-01-12T09:25:16.390Z,1015.08
2019-01-12T09:26:16.363Z,1015.05
2019-01-12T09:27:16.344Z,1015.06
2019-01-12T09:28:16.338Z,1015.04
2019-01-12T09:29:16.354Z,1015.08
2019-01-12T09:30:16.340Z,1015.04
2019-01-12T09:31:16.370Z,1015.01
2019-01-12T09:32:16.311Z,1014.98
2019-01-12T09:33:16.279Z,1014.88
2019-01-12T09:34:16.282Z,1014.93
2019-01-12T09:35:16.256Z,1014.88
2019-01-12T09:36:16.270Z,1014.89
2019-01-12T09:37:16.249Z,1014.87
2019-01-12T09:38:16.227Z,1014.90
2019-01-12T09:39:16.223Z,1014.91
2019-01-12T09:40:16.213Z,1014.92
2019-01-12T09:41:16.213Z,1014.94
2019-01-12T09:42:16.196Z,1014.90
2019-01-12T09:43:16.207Z,1014.92
2019-01-12T09:44:16.178Z,1014.93
2019-01-12T09:45:16.173Z,1014.90
2019-01-12T09:46:16.300Z,1014.91
2019-01-12T09:47:16.127Z,1014.90
2019-01-12T09:48:16.116Z,1014.86
2019-01-12T09:49:16.106Z,1014.83
2019-01-12T09:50:16.106Z,1014.82
2019-01-12T09:51:16.129Z,1014.87
2019-01-12T09:52:16.108Z,1014.86
2019-01-12T09:53:16.064Z,1014.85
2019-01-12T09:54:16.064Z,1014.84
2019-01-12T09:55:16.045Z,1014.88
2019-01-12T09:56:16.033Z,1014.86
2019-01-12T09:57:16.047Z,1014.82
2019-01-12T09:58:16.087Z,1014.80
2019-01-12T09:59:15.997Z,1014.84
2019-01-12T10:00:15.994Z,1014.75
2019-01-12T10:01:15.978Z,1014.80
2019-01-12T10:02:16.010Z,1014.80
2019-01-12T10:03:15.954Z,1014.80
2019-01-12T10:04:15.948Z,1014.75
2019-01-12T10:05:15.943Z,1014.79
2019-01-12T10:06:15.946Z,1014.76
2019-01-12T10:07:15.939Z,1014.77
2019-01-12T10:08:15.902Z,1014.73
2019-01-12T10:09:15.902Z,1014.70
2019-01-12T10:10:15.885Z,1014.66
2019-01-12T10:11:15.920Z,1014.63
2019-01-12T10:12:15.862Z,1014.55
2019-01-12T10:13:15.888Z,1014.52
2019-01-12T10:14:15.855Z,1014.40
2019-01-12T10:15:15.830Z,1014.41
2019-01-12T10:16:15.811Z,1014.48
2019-01-12T10:17:15.807Z,1014.47
2019-01-12T10:18:15.887Z,1014.41
2019-01-12T10:19:15.781Z,1014.38
2019-01-12T10:20:15.772Z,1014.44
2019-01-12T10:21:15.767Z,1014.37
2019-01-12T10:22:15.749Z,1014.26
2019-01-12T10:23:15.762Z,1014.23
2019-01-12T10:24:15.730Z,1014.24
2019-01-12T10:25:15.726Z,1014.23
2019-01-12T10:26:15.708Z,1014.22
2019-01-12T10:27:15.699Z,1014.21
2019-01-12T10:28:15.683Z,1014.15
2019-01-12T10:29:15.699Z,1014.21
2019-01-12T10:30:15.663Z,1014.24
2019-01-12T10:31:15.663Z,1014.15
2019-01-12T10:32:15.650Z,1014.07
2019-01-12T10:33:15.630Z,1014.03
2019-01-12T10:34:15.826Z,1013.97
2019-01-12T10:35:15.610Z,1014.00
2019-01-12T10:36:15.618Z,1013.88
2019-01-12T10:37:15.629Z,1013.83
2019-01-12T10:38:15.584Z,1013.87
2019-01-12T10:39:18.018Z,1013.87
2019-01-12T10:40:15.589Z,1013.94
2019-01-12T10:41:15.614Z,1013.92
2019-01-12T10:42:15.542Z,1014.03
2019-01-12T10:43:15.530Z,1013.99
2019-01-12T10:44:15.554Z,1013.98
2019-01-12T10:45:15.540Z,1013.88
2019-01-12T10:46:15.494Z,1013.79
2019-01-12T10:47:15.480Z,1013.91
2019-01-12T10:48:15.518Z,1013.79
2019-01-12T10:49:15.465Z,1013.76
2019-01-12T10:50:15.474Z,1013.80
2019-01-12T10:51:15.452Z,1013.85
2019-01-12T10:52:15.428Z,1013.88
2019-01-12T10:53:15.416Z,1013.86
2019-01-12T10:54:15.407Z,1013.85
2019-01-12T10:55:15.436Z,1013.81
2019-01-12T10:56:15.389Z,1013.74
2019-01-12T10:57:15.378Z,1013.81
2019-01-12T10:58:15.370Z,1013.80
2019-01-12T10:59:15.353Z,1013.72
2019-01-12T11:00:15.340Z,1013.81
2019-01-12T11:01:15.425Z,1013.78
2019-01-12T11:02:15.358Z,1013.73
2019-01-12T11:03:15.308Z,1013.75
2019-01-12T11:04:15.302Z,1013.78
2019-01-12T11:05:15.293Z,1013.71
2019-01-12T11:06:15.330Z,1013.70
2019-01-12T11:07:15.265Z,1013.65
2019-01-12T11:08:15.260Z,1013.64
2019-01-12T11:09:15.263Z,1013.57
2019-01-12T11:10:15.263Z,1013.58
2019-01-12T11:11:15.253Z,1013.53
2019-01-12T11:12:15.228Z,1013.53
2019-01-12T11:13:15.221Z,1013.51
2019-01-12T11:14:15.199Z,1013.45
2019-01-12T11:15:15.183Z,1013.39
2019-01-12T11:16:15.182Z,1013.42
2019-01-12T11:17:15.185Z,1013.36
2019-01-12T11:18:15.172Z,1013.36
2019-01-12T11:19:15.146Z,1013.32
2019-01-12T11:20:15.171Z,1013.29
2019-01-12T11:21:15.157Z,1013.36
2019-01-12T11:22:15.100Z,1013.32
2019-01-12T11:23:15.093Z,1013.22
2019-01-12T11:24:15.105Z,1013.25
2019-01-12T11:25:15.068Z,1013.21
2019-01-12T11:26:15.093Z,1013.21
2019-01-12T11:27:15.065Z,1013.18
2019-01-12T11:28:15.041Z,1013.16
2019-01-12T11:29:15.030Z,1013.14
2019-01-12T11:30:15.014Z,1013.15
2019-01-12T11:31:19.801Z,1013.10
2019-01-12T11:32:16.025Z,1013.05
2019-01-12T11:33:14.986Z,1013.03
2019-01-12T11:34:14.978Z,1013.10
2019-01-12T11:35:14.985Z,1013.03
2019-01-12T11:36:14.955Z,1013.01
2019-01-12T11:37:14.976Z,1012.94
2019-01-12T11:38:14.934Z,1012.99
2019-01-12T11:39:14.932Z,1012.92
2019-01-12T11:40:14.935Z,1013.02
2019-01-12T11:41:14.901Z,1012.99
2019-01-12T11:42:14.895Z,1013.01
2019-01-12T11:43:14.897Z,1013.02
2019-01-12T11:44:14.865Z,1013.06
2019-01-12T11:45:14.854Z,1012.98
2019-01-12T11:46:14.854Z,1012.99
2019-01-12T11:47:14.831Z,1012.95
2019-01-12T11:48:14.897Z,1012.89
2019-01-12T11:49:14.814Z,1012.89
2019-01-12T11:50:14.815Z,1012.87
2019-01-12T11:51:14.808Z,1012.83
2019-01-12T11:52:14.782Z,1012.70
2019-01-12T11:53:14.786Z,1012.86
2019-01-12T11:54:14.791Z,1012.69
2019-01-12T11:55:14.746Z,1012.73
2019-01-12T11:56:14.739Z,1012.66
2019-01-12T11:57:19.063Z,1012.70
2019-01-12T11:58:14.739Z,1012.66
2019-01-12T11:59:14.704Z,1012.61
2019-01-12T12:00:14.695Z,1012.61
2019-01-12T12:01:14.679Z,1012.77
2019-01-12T12:02:14.675Z,1012.63
2019-01-12T12:03:14.696Z,1012.73
2019-01-12T12:04:14.666Z,1012.61
2019-01-12T12:05:14.637Z,1012.66